sensor_id;sensor_type;location;lat;lon;timestamp;temperature;humidity
1015;DHT22;8170;48.118;11.628;2023-02-16T00:00:31;-0.30;99.90
1015;DHT22;8170;48.118;11.628;2023-02-16T00:01:34;-0.30;99.90
1015;DHT22;8170;48.118;11.628;2023-02-16T00:02:37;-0.30;99.90
1015;DHT22;8170;48.118;11.628;2023-02-16T00:03:40;-0.30;99.90
1015;DHT22;8170;48.118;11.628;2023-02-16T00:04:43;-0.30;99.90
1015;DHT22;8170;48.118;11.628;2023-02-16T00:05:46;-0.30;99.90
1015;DHT22;8170;48.118;11.628;2023-02-16T00:06:50;-0.30;99.90
1015;DHT22;8170;48.118;11.628;2023-02-16T00:07:54;-0.30;99.90
1015;DHT22;8170;48.118;11.628;2023-02-16T00:08:56;-0.30;99.90
1015;DHT22;8170;48.118;11.628;2023-02-16T00:09:59;-0.30;99.90
1015;DHT22;8170;48.118;11.628;2023-02-16T00:11:01;-0.30;99.90
1015;DHT22;8170;48.118;11.628;2023-02-16T00:12:20;-0.40;99.90
1015;DHT22;8170;48.118;11.628;2023-02-16T00:13:40;-0.40;99.90
1015;DHT22;8170;48.118;11.628;2023-02-16T00:14:47;-0.40;99.90
1015;DHT22;8170;48.118;11.628;2023-02-16T00:15:50;-0.50;99.90
1015;DHT22;8170;48.118;11.628;2023-02-16T00:16:53;-0.50;99.90
1015;DHT22;8170;48.118;11.628;2023-02-16T00:17:58;-0.50;99.90
1015;DHT22;8170;48.118;11.628;2023-02-16T00:19:01;-0.50;99.90
1015;DHT22;8170;48.118;11.628;2023-02-16T00:20:08;-0.50;99.90
1015;DHT22;8170;48.118;11.628;2023-02-16T00:21:11;-0.50;99.90
1015;DHT22;8170;48.118;11.628;2023-02-16T00:22:14;-0.50;99.90
1015;DHT22;8170;48.118;11.628;2023-02-16T00:23:17;-0.50;99.90
1015;DHT22;8170;48.118;11.628;2023-02-16T00:24:20;-0.50;99.90
1015;DHT22;8170;48.118;11.628;2023-02-16T00:25:23;-0.50;99.90
1015;DHT22;8170;48.118;11.628;2023-02-16T00:26:33;-0.50;99.90
1015;DHT22;8170;48.118;11.628;2023-02-16T00:27:37;-0.50;99.90
1015;DHT22;8170;48.118;11.628;2023-02-16T00:28:39;-0.50;99.90
1015;DHT22;8170;48.118;11.628;2023-02-16T00:29:44;-0.50;99.90
1015;DHT22;8170;48.118;11.628;2023-02-16T00:30:49;-0.60;99.90
1015;DHT22;8170;48.118;11.628;2023-02-16T00:31:54;-0.50;99.90
1015;DHT22;8170;48.118;11.628;2023-02-16T00:32:58;-0.50;99.90
1015;DHT22;8170;48.118;11.628;2023-02-16T00:34:18;-0.50;99.90
1015;DHT22;8170;48.118;11.628;2023-02-16T00:35:24;-0.60;99.90
1015;DHT22;8170;48.118;11.628;2023-02-16T00:36:26;-0.60;99.90
1015;DHT22;8170;48.118;11.628;2023-02-16T00:37:29;-0.50;99.90
1015;DHT22;8170;48.118;11.628;2023-02-16T00:38:32;-0.50;99.90
1015;DHT22;8170;48.118;11.628;2023-02-16T00:39:36;-0.50;99.90
1015;DHT22;8170;48.118;11.628;2023-02-16T00:40:39;-0.60;99.90
1015;DHT22;8170;48.118;11.628;2023-02-16T00:41:44;-0.70;99.90
1015;DHT22;8170;48.118;11.628;2023-02-16T00:42:52;-0.80;99.90
1015;DHT22;8170;48.118;11.628;2023-02-16T00:43:58;-0.80;99.90
1015;DHT22;8170;48.118;11.628;2023-02-16T00:45:00;-0.70;99.90
1015;DHT22;8170;48.118;11.628;2023-02-16T00:46:05;-0.70;99.90
1015;DHT22;8170;48.118;11.628;2023-02-16T00:47:17;-0.70;99.90
1015;DHT22;8170;48.118;11.628;2023-02-16T00:48:21;-0.60;99.90
1015;DHT22;8170;48.118;11.628;2023-02-16T00:49:23;-0.70;99.90
1015;DHT22;8170;48.118;11.628;2023-02-16T00:50:27;-0.70;99.90
1015;DHT22;8170;48.118;11.628;2023-02-16T00:51:30;-0.70;99.90
1015;DHT22;8170;48.118;11.628;2023-02-16T00:52:34;-0.70;99.90
1015;DHT22;8170;48.118;11.628;2023-02-16T00:53:37;-0.70;99.90
1015;DHT22;8170;48.118;11.628;2023-02-16T00:54:40;-0.70;99.90
1015;DHT22;8170;48.118;11.628;2023-02-16T00:55:42;-0.60;99.90
1015;DHT22;8170;48.118;11.628;2023-02-16T00:56:45;-0.60;99.90
1015;DHT22;8170;48.118;11.628;2023-02-16T00:57:51;-0.60;99.90
1015;DHT22;8170;48.118;11.628;2023-02-16T00:58:54;-0.60;99.90
1015;DHT22;8170;48.118;11.628;2023-02-16T01:00:00;-0.60;99.90
1015;DHT22;8170;48.118;11.628;2023-02-16T01:01:10;-0.70;99.90
1015;DHT22;8170;48.118;11.628;2023-02-16T01:02:14;-0.60;99.90
1015;DHT22;8170;48.118;11.628;2023-02-16T01:03:18;-0.70;99.90
1015;DHT22;8170;48.118;11.628;2023-02-16T01:04:22;-0.60;99.90
1015;DHT22;8170;48.118;11.628;2023-02-16T01:05:26;-0.60;99.90
1015;DHT22;8170;48.118;11.628;2023-02-16T01:06:28;-0.60;99.90
1015;DHT22;8170;48.118;11.628;2023-02-16T01:07:49;-0.60;99.90
1015;DHT22;8170;48.118;11.628;2023-02-16T01:09:12;-0.60;99.90
1015;DHT22;8170;48.118;11.628;2023-02-16T01:10:35;-0.70;99.90
1015;DHT22;8170;48.118;11.628;2023-02-16T01:11:56;-0.60;99.90
1015;DHT22;8170;48.118;11.628;2023-02-16T01:13:00;-0.60;99.90
1015;DHT22;8170;48.118;11.628;2023-02-16T01:14:02;-0.60;99.90
1015;DHT22;8170;48.118;11.628;2023-02-16T01:15:09;-0.60;99.90
1015;DHT22;8170;48.118;11.628;2023-02-16T01:16:16;-0.70;99.90
1015;DHT22;8170;48.118;11.628;2023-02-16T01:17:20;-0.60;99.90
1015;DHT22;8170;48.118;11.628;2023-02-16T01:18:23;-0.70;99.90
1015;DHT22;8170;48.118;11.628;2023-02-16T01:19:26;-0.70;99.90
1015;DHT22;8170;48.118;11.628;2023-02-16T01:20:28;-0.70;99.90
1015;DHT22;8170;48.118;11.628;2023-02-16T01:21:31;-0.70;99.90
1015;DHT22;8170;48.118;11.628;2023-02-16T01:22:35;-0.70;99.90
1015;DHT22;8170;48.118;11.628;2023-02-16T01:23:41;-0.80;99.90
1015;DHT22;8170;48.118;11.628;2023-02-16T01:24:43;-0.70;99.90
1015;DHT22;8170;48.118;11.628;2023-02-16T01:25:46;-0.70;99.90
1015;DHT22;8170;48.118;11.628;2023-02-16T01:26:51;-0.70;99.90
1015;DHT22;8170;48.118;11.628;2023-02-16T01:27:54;-0.70;99.90
1015;DHT22;8170;48.118;11.628;2023-02-16T01:28:56;-0.70;99.90
1015;DHT22;8170;48.118;11.628;2023-02-16T01:29:59;-0.70;99.90
1015;DHT22;8170;48.118;11.628;2023-02-16T01:31:02;-0.70;99.90
1015;DHT22;8170;48.118;11.628;2023-02-16T01:32:09;-0.70;99.90
1015;DHT22;8170;48.118;11.628;2023-02-16T01:33:12;-0.70;99.90
1015;DHT22;8170;48.118;11.628;2023-02-16T01:34:15;-0.80;99.90
1015;DHT22;8170;48.118;11.628;2023-02-16T01:35:18;-0.80;99.90
1015;DHT22;8170;48.118;11.628;2023-02-16T01:36:23;-0.80;99.90
1015;DHT22;8170;48.118;11.628;2023-02-16T01:37:27;-0.80;99.90
1015;DHT22;8170;48.118;11.628;2023-02-16T01:38:30;-0.80;99.90
1015;DHT22;8170;48.118;11.628;2023-02-16T01:39:34;-0.80;99.90
1015;DHT22;8170;48.118;11.628;2023-02-16T01:40:41;-0.80;99.90
1015;DHT22;8170;48.118;11.628;2023-02-16T01:42:02;-0.80;99.90
1015;DHT22;8170;48.118;11.628;2023-02-16T01:43:15;-0.80;99.90
1015;DHT22;8170;48.118;11.628;2023-02-16T01:44:22;-0.80;99.90
1015;DHT22;8170;48.118;11.628;2023-02-16T01:45:31;-0.80;99.90
1015;DHT22;8170;48.118;11.628;2023-02-16T01:46:38;-0.80;99.90
1015;DHT22;8170;48.118;11.628;2023-02-16T01:47:48;-0.80;99.90
1015;DHT22;8170;48.118;11.628;2023-02-16T01:48:53;-0.80;99.90
1015;DHT22;8170;48.118;11.628;2023-02-16T01:49:56;-0.80;99.90
1015;DHT22;8170;48.118;11.628;2023-02-16T01:51:04;-0.80;99.90
1015;DHT22;8170;48.118;11.628;2023-02-16T01:52:23;-0.80;99.90
1015;DHT22;8170;48.118;11.628;2023-02-16T01:53:30;-0.80;99.90
1015;DHT22;8170;48.118;11.628;2023-02-16T01:54:39;-0.80;99.90
1015;DHT22;8170;48.118;11.628;2023-02-16T01:55:44;-0.80;99.90
1015;DHT22;8170;48.118;11.628;2023-02-16T01:56:52;-0.80;99.90
1015;DHT22;8170;48.118;11.628;2023-02-16T01:57:59;-0.80;99.90
1015;DHT22;8170;48.118;11.628;2023-02-16T01:59:08;-0.80;99.90
1015;DHT22;8170;48.118;11.628;2023-02-16T02:00:16;-0.80;99.90
1015;DHT22;8170;48.118;11.628;2023-02-16T02:01:42;-0.80;99.90
1015;DHT22;8170;48.118;11.628;2023-02-16T02:02:49;-0.90;99.90
1015;DHT22;8170;48.118;11.628;2023-02-16T02:03:53;-0.90;99.90
1015;DHT22;8170;48.118;11.628;2023-02-16T02:05:26;-0.90;99.90
1015;DHT22;8170;48.118;11.628;2023-02-16T02:06:39;-1.00;99.90
1015;DHT22;8170;48.118;11.628;2023-02-16T02:07:45;-1.00;99.90
1015;DHT22;8170;48.118;11.628;2023-02-16T02:08:55;-1.00;99.90
1015;DHT22;8170;48.118;11.628;2023-02-16T02:10:06;-0.90;99.90
1015;DHT22;8170;48.118;11.628;2023-02-16T02:11:16;-0.90;99.90
1015;DHT22;8170;48.118;11.628;2023-02-16T02:12:31;-0.90;99.90
1015;DHT22;8170;48.118;11.628;2023-02-16T02:13:40;-0.90;99.90
1015;DHT22;8170;48.118;11.628;2023-02-16T02:14:43;-1.00;99.90
1015;DHT22;8170;48.118;11.628;2023-02-16T02:15:47;-1.00;99.90
1015;DHT22;8170;48.118;11.628;2023-02-16T02:16:55;-0.90;99.90
1015;DHT22;8170;48.118;11.628;2023-02-16T02:18:01;-0.90;99.90
1015;DHT22;8170;48.118;11.628;2023-02-16T02:19:03;-1.00;99.90
1015;DHT22;8170;48.118;11.628;2023-02-16T02:20:12;-0.90;99.90
1015;DHT22;8170;48.118;11.628;2023-02-16T02:21:44;-1.00;99.90
1015;DHT22;8170;48.118;11.628;2023-02-16T02:23:23;-1.10;99.90
1015;DHT22;8170;48.118;11.628;2023-02-16T02:26:39;-1.10;99.90
1015;DHT22;8170;48.118;11.628;2023-02-16T02:27:48;-1.10;99.90
1015;DHT22;8170;48.118;11.628;2023-02-16T02:29:04;-1.10;99.90
1015;DHT22;8170;48.118;11.628;2023-02-16T02:30:21;-1.10;99.90
1015;DHT22;8170;48.118;11.628;2023-02-16T02:31:39;-1.10;99.90
1015;DHT22;8170;48.118;11.628;2023-02-16T02:32:59;-1.20;99.90
1015;DHT22;8170;48.118;11.628;2023-02-16T02:34:14;-1.20;99.90
1015;DHT22;8170;48.118;11.628;2023-02-16T02:35:33;-1.30;99.90
1015;DHT22;8170;48.118;11.628;2023-02-16T02:36:42;-1.30;99.90
1015;DHT22;8170;48.118;11.628;2023-02-16T02:37:50;-1.30;99.90
1015;DHT22;8170;48.118;11.628;2023-02-16T02:39:06;-1.20;99.90
1015;DHT22;8170;48.118;11.628;2023-02-16T02:40:16;-1.30;99.90
1015;DHT22;8170;48.118;11.628;2023-02-16T02:41:25;-1.20;99.90
1015;DHT22;8170;48.118;11.628;2023-02-16T02:43:03;-1.20;99.90
1015;DHT22;8170;48.118;11.628;2023-02-16T02:44:09;-1.20;99.90
1015;DHT22;8170;48.118;11.628;2023-02-16T02:45:15;-1.30;99.90
1015;DHT22;8170;48.118;11.628;2023-02-16T02:46:24;-1.30;99.90
1015;DHT22;8170;48.118;11.628;2023-02-16T02:47:37;-1.30;99.90
1015;DHT22;8170;48.118;11.628;2023-02-16T02:48:41;-1.20;99.90
1015;DHT22;8170;48.118;11.628;2023-02-16T02:49:50;-1.30;99.90
1015;DHT22;8170;48.118;11.628;2023-02-16T02:50:55;-1.30;99.90
1015;DHT22;8170;48.118;11.628;2023-02-16T02:52:17;-1.30;99.90
1015;DHT22;8170;48.118;11.628;2023-02-16T02:53:20;-1.40;99.90
1015;DHT22;8170;48.118;11.628;2023-02-16T02:54:25;-1.50;99.90
1015;DHT22;8170;48.118;11.628;2023-02-16T02:55:48;-1.50;99.90
1015;DHT22;8170;48.118;11.628;2023-02-16T02:57:13;-1.40;99.90
1015;DHT22;8170;48.118;11.628;2023-02-16T02:58:38;-1.40;99.90
1015;DHT22;8170;48.118;11.628;2023-02-16T03:00:03;-1.30;99.90
1015;DHT22;8170;48.118;11.628;2023-02-16T03:01:25;-1.40;99.90
1015;DHT22;8170;48.118;11.628;2023-02-16T03:02:30;-1.40;99.90
1015;DHT22;8170;48.118;11.628;2023-02-16T03:03:39;-1.30;99.90
1015;DHT22;8170;48.118;11.628;2023-02-16T03:04:46;-1.30;99.90
1015;DHT22;8170;48.118;11.628;2023-02-16T03:05:51;-1.30;99.90
1015;DHT22;8170;48.118;11.628;2023-02-16T03:06:56;-1.30;99.90
1015;DHT22;8170;48.118;11.628;2023-02-16T03:08:04;-1.30;99.90
1015;DHT22;8170;48.118;11.628;2023-02-16T03:09:16;-1.30;99.90
1015;DHT22;8170;48.118;11.628;2023-02-16T03:10:20;-1.30;99.90
1015;DHT22;8170;48.118;11.628;2023-02-16T03:11:43;-1.30;99.90
1015;DHT22;8170;48.118;11.628;2023-02-16T03:13:09;-1.30;99.90
1015;DHT22;8170;48.118;11.628;2023-02-16T03:14:17;-1.30;99.90
1015;DHT22;8170;48.118;11.628;2023-02-16T03:15:21;-1.30;99.90
1015;DHT22;8170;48.118;11.628;2023-02-16T03:16:29;-1.30;99.90
1015;DHT22;8170;48.118;11.628;2023-02-16T03:17:34;-1.30;99.90
1015;DHT22;8170;48.118;11.628;2023-02-16T03:18:57;-1.30;99.90
1015;DHT22;8170;48.118;11.628;2023-02-16T03:20:18;-1.40;99.90
1015;DHT22;8170;48.118;11.628;2023-02-16T03:21:39;-1.40;99.90
1015;DHT22;8170;48.118;11.628;2023-02-16T03:23:01;-1.40;99.90
1015;DHT22;8170;48.118;11.628;2023-02-16T03:24:25;-1.40;99.90
1015;DHT22;8170;48.118;11.628;2023-02-16T03:25:46;-1.40;99.90
1015;DHT22;8170;48.118;11.628;2023-02-16T03:27:08;-1.50;99.90
1015;DHT22;8170;48.118;11.628;2023-02-16T03:28:30;-1.50;99.90
1015;DHT22;8170;48.118;11.628;2023-02-16T03:29:54;-1.50;99.90
1015;DHT22;8170;48.118;11.628;2023-02-16T03:30:59;-1.50;99.90
1015;DHT22;8170;48.118;11.628;2023-02-16T03:32:03;-1.60;99.90
1015;DHT22;8170;48.118;11.628;2023-02-16T03:33:07;-1.60;99.90
1015;DHT22;8170;48.118;11.628;2023-02-16T03:34:09;-1.50;99.90
1015;DHT22;8170;48.118;11.628;2023-02-16T03:35:13;-1.60;99.90
1015;DHT22;8170;48.118;11.628;2023-02-16T03:36:15;-1.50;99.90
1015;DHT22;8170;48.118;11.628;2023-02-16T03:37:18;-1.50;99.90
1015;DHT22;8170;48.118;11.628;2023-02-16T03:38:21;-1.50;99.90
1015;DHT22;8170;48.118;11.628;2023-02-16T03:39:25;-1.50;99.90
1015;DHT22;8170;48.118;11.628;2023-02-16T03:40:29;-1.50;99.90
1015;DHT22;8170;48.118;11.628;2023-02-16T03:41:39;-1.40;99.90
1015;DHT22;8170;48.118;11.628;2023-02-16T03:42:48;-1.50;99.90
1015;DHT22;8170;48.118;11.628;2023-02-16T03:43:50;-1.40;99.90
1015;DHT22;8170;48.118;11.628;2023-02-16T03:44:55;-1.40;99.90
1015;DHT22;8170;48.118;11.628;2023-02-16T03:45:57;-1.40;99.90
1015;DHT22;8170;48.118;11.628;2023-02-16T03:47:00;-1.40;99.90
1015;DHT22;8170;48.118;11.628;2023-02-16T03:48:03;-1.40;99.90
1015;DHT22;8170;48.118;11.628;2023-02-16T03:49:06;-1.40;99.90
1015;DHT22;8170;48.118;11.628;2023-02-16T03:50:08;-1.40;99.90
1015;DHT22;8170;48.118;11.628;2023-02-16T03:51:11;-1.40;99.90
1015;DHT22;8170;48.118;11.628;2023-02-16T03:52:13;-1.40;99.90
1015;DHT22;8170;48.118;11.628;2023-02-16T03:53:16;-1.40;99.90
1015;DHT22;8170;48.118;11.628;2023-02-16T03:54:19;-1.40;99.90
1015;DHT22;8170;48.118;11.628;2023-02-16T03:55:22;-1.40;99.90
1015;DHT22;8170;48.118;11.628;2023-02-16T03:56:25;-1.40;99.90
1015;DHT22;8170;48.118;11.628;2023-02-16T03:57:28;-1.40;99.90
1015;DHT22;8170;48.118;11.628;2023-02-16T03:58:30;-1.50;99.90
1015;DHT22;8170;48.118;11.628;2023-02-16T03:59:34;-1.40;99.90
1015;DHT22;8170;48.118;11.628;2023-02-16T04:00:38;-1.40;99.90
1015;DHT22;8170;48.118;11.628;2023-02-16T04:01:41;-1.40;99.90
1015;DHT22;8170;48.118;11.628;2023-02-16T04:02:43;-1.50;99.90
1015;DHT22;8170;48.118;11.628;2023-02-16T04:03:46;-1.40;99.90
1015;DHT22;8170;48.118;11.628;2023-02-16T04:04:48;-1.50;99.90
1015;DHT22;8170;48.118;11.628;2023-02-16T04:05:52;-1.50;99.90
1015;DHT22;8170;48.118;11.628;2023-02-16T04:06:54;-1.50;99.90
1015;DHT22;8170;48.118;11.628;2023-02-16T04:07:57;-1.50;99.90
1015;DHT22;8170;48.118;11.628;2023-02-16T04:09:00;-1.50;99.90
1015;DHT22;8170;48.118;11.628;2023-02-16T04:10:03;-1.50;99.90
1015;DHT22;8170;48.118;11.628;2023-02-16T04:11:06;-1.40;99.90
1015;DHT22;8170;48.118;11.628;2023-02-16T04:12:23;-1.40;99.90
1015;DHT22;8170;48.118;11.628;2023-02-16T04:13:38;-1.40;99.90
1015;DHT22;8170;48.118;11.628;2023-02-16T04:14:41;-1.40;99.90
1015;DHT22;8170;48.118;11.628;2023-02-16T04:15:46;-1.50;99.90
1015;DHT22;8170;48.118;11.628;2023-02-16T04:16:49;-1.50;99.90
1015;DHT22;8170;48.118;11.628;2023-02-16T04:17:52;-1.50;99.90
1015;DHT22;8170;48.118;11.628;2023-02-16T04:18:55;-1.60;99.90
1015;DHT22;8170;48.118;11.628;2023-02-16T04:19:57;-1.70;99.90
1015;DHT22;8170;48.118;11.628;2023-02-16T04:21:00;-1.70;99.90
1015;DHT22;8170;48.118;11.628;2023-02-16T04:22:03;-1.70;99.90
1015;DHT22;8170;48.118;11.628;2023-02-16T04:23:06;-1.70;99.90
1015;DHT22;8170;48.118;11.628;2023-02-16T04:24:09;-1.70;99.90
1015;DHT22;8170;48.118;11.628;2023-02-16T04:25:12;-1.60;99.90
1015;DHT22;8170;48.118;11.628;2023-02-16T04:26:15;-1.60;99.90
1015;DHT22;8170;48.118;11.628;2023-02-16T04:27:17;-1.60;99.90
1015;DHT22;8170;48.118;11.628;2023-02-16T04:28:20;-1.60;99.90
1015;DHT22;8170;48.118;11.628;2023-02-16T04:29:22;-1.60;99.90
1015;DHT22;8170;48.118;11.628;2023-02-16T04:30:28;-1.60;99.90
1015;DHT22;8170;48.118;11.628;2023-02-16T04:31:32;-1.60;99.90
1015;DHT22;8170;48.118;11.628;2023-02-16T04:32:35;-1.70;99.90
1015;DHT22;8170;48.118;11.628;2023-02-16T04:33:38;-1.80;99.90
1015;DHT22;8170;48.118;11.628;2023-02-16T04:34:41;-1.80;99.90
1015;DHT22;8170;48.118;11.628;2023-02-16T04:35:43;-1.90;99.90
1015;DHT22;8170;48.118;11.628;2023-02-16T04:36:46;-1.90;99.90
1015;DHT22;8170;48.118;11.628;2023-02-16T04:37:50;-1.90;99.90
1015;DHT22;8170;48.118;11.628;2023-02-16T04:38:52;-1.90;99.90
1015;DHT22;8170;48.118;11.628;2023-02-16T04:39:55;-1.90;99.90
1015;DHT22;8170;48.118;11.628;2023-02-16T04:40:57;-1.90;99.90
1015;DHT22;8170;48.118;11.628;2023-02-16T04:42:01;-1.90;99.90
1015;DHT22;8170;48.118;11.628;2023-02-16T04:43:03;-1.80;99.90
1015;DHT22;8170;48.118;11.628;2023-02-16T04:44:06;-1.80;99.90
1015;DHT22;8170;48.118;11.628;2023-02-16T04:45:10;-1.80;99.90
1015;DHT22;8170;48.118;11.628;2023-02-16T04:46:13;-1.80;99.90
1015;DHT22;8170;48.118;11.628;2023-02-16T04:47:17;-1.80;99.90
1015;DHT22;8170;48.118;11.628;2023-02-16T04:48:20;-1.80;99.90
1015;DHT22;8170;48.118;11.628;2023-02-16T04:49:23;-1.80;99.90
1015;DHT22;8170;48.118;11.628;2023-02-16T04:50:26;-1.70;99.90
1015;DHT22;8170;48.118;11.628;2023-02-16T04:51:28;-1.80;99.90
1015;DHT22;8170;48.118;11.628;2023-02-16T04:52:31;-1.70;99.90
1015;DHT22;8170;48.118;11.628;2023-02-16T04:53:35;-1.70;99.90
1015;DHT22;8170;48.118;11.628;2023-02-16T04:54:41;-1.80;99.90
1015;DHT22;8170;48.118;11.628;2023-02-16T04:55:48;-1.80;99.90
1015;DHT22;8170;48.118;11.628;2023-02-16T04:56:53;-1.70;99.90
1015;DHT22;8170;48.118;11.628;2023-02-16T04:57:58;-1.70;99.90
1015;DHT22;8170;48.118;11.628;2023-02-16T04:59:11;-1.80;99.90
1015;DHT22;8170;48.118;11.628;2023-02-16T05:00:16;-1.80;99.90
1015;DHT22;8170;48.118;11.628;2023-02-16T05:01:26;-1.70;99.90
1015;DHT22;8170;48.118;11.628;2023-02-16T05:02:30;-1.70;99.90
1015;DHT22;8170;48.118;11.628;2023-02-16T05:03:34;-1.70;99.90
1015;DHT22;8170;48.118;11.628;2023-02-16T05:04:36;-1.80;99.90
1015;DHT22;8170;48.118;11.628;2023-02-16T05:05:39;-1.80;99.90
1015;DHT22;8170;48.118;11.628;2023-02-16T05:06:42;-1.70;99.90
1015;DHT22;8170;48.118;11.628;2023-02-16T05:07:45;-1.80;99.90
1015;DHT22;8170;48.118;11.628;2023-02-16T05:08:48;-1.80;99.90
1015;DHT22;8170;48.118;11.628;2023-02-16T05:09:50;-1.70;99.90
1015;DHT22;8170;48.118;11.628;2023-02-16T05:10:54;-1.70;99.90
1015;DHT22;8170;48.118;11.628;2023-02-16T05:12:11;-1.70;99.90
1015;DHT22;8170;48.118;11.628;2023-02-16T05:13:31;-1.80;99.90
1015;DHT22;8170;48.118;11.628;2023-02-16T05:14:52;-1.70;99.90
1015;DHT22;8170;48.118;11.628;2023-02-16T05:15:56;-1.80;99.90
1015;DHT22;8170;48.118;11.628;2023-02-16T05:16:58;-1.70;99.90
1015;DHT22;8170;48.118;11.628;2023-02-16T05:18:03;-1.70;99.90
1015;DHT22;8170;48.118;11.628;2023-02-16T05:19:06;-1.70;99.90
1015;DHT22;8170;48.118;11.628;2023-02-16T05:20:10;-1.70;99.90
1015;DHT22;8170;48.118;11.628;2023-02-16T05:21:13;-1.70;99.90
1015;DHT22;8170;48.118;11.628;2023-02-16T05:22:34;-1.70;99.90
1015;DHT22;8170;48.118;11.628;2023-02-16T05:23:40;-1.70;99.90
1015;DHT22;8170;48.118;11.628;2023-02-16T05:24:42;-1.70;99.90
1015;DHT22;8170;48.118;11.628;2023-02-16T05:25:45;-1.70;99.90
1015;DHT22;8170;48.118;11.628;2023-02-16T05:26:48;-1.70;99.90
1015;DHT22;8170;48.118;11.628;2023-02-16T05:27:51;-1.70;99.90
1015;DHT22;8170;48.118;11.628;2023-02-16T05:28:53;-1.70;99.90
1015;DHT22;8170;48.118;11.628;2023-02-16T05:29:57;-1.70;99.90
1015;DHT22;8170;48.118;11.628;2023-02-16T05:31:00;-1.70;99.90
1015;DHT22;8170;48.118;11.628;2023-02-16T05:32:03;-1.70;99.90
1015;DHT22;8170;48.118;11.628;2023-02-16T05:33:08;-1.70;99.90
1015;DHT22;8170;48.118;11.628;2023-02-16T05:34:11;-1.70;99.90
1015;DHT22;8170;48.118;11.628;2023-02-16T05:35:14;-1.70;99.90
1015;DHT22;8170;48.118;11.628;2023-02-16T05:36:17;-1.70;99.90
1015;DHT22;8170;48.118;11.628;2023-02-16T05:37:19;-1.70;99.90
1015;DHT22;8170;48.118;11.628;2023-02-16T05:38:23;-1.70;99.90
1015;DHT22;8170;48.118;11.628;2023-02-16T05:39:25;-1.70;99.90
1015;DHT22;8170;48.118;11.628;2023-02-16T05:40:28;-1.70;99.90
1015;DHT22;8170;48.118;11.628;2023-02-16T05:41:30;-1.70;99.90
1015;DHT22;8170;48.118;11.628;2023-02-16T05:42:33;-1.70;99.90
1015;DHT22;8170;48.118;11.628;2023-02-16T05:43:35;-1.70;99.90
1015;DHT22;8170;48.118;11.628;2023-02-16T05:44:38;-1.70;99.90
1015;DHT22;8170;48.118;11.628;2023-02-16T05:45:41;-1.70;99.90
1015;DHT22;8170;48.118;11.628;2023-02-16T05:46:44;-1.70;99.90
1015;DHT22;8170;48.118;11.628;2023-02-16T05:47:47;-1.70;99.90
1015;DHT22;8170;48.118;11.628;2023-02-16T05:48:52;-1.70;99.90
1015;DHT22;8170;48.118;11.628;2023-02-16T05:49:54;-1.70;99.90
1015;DHT22;8170;48.118;11.628;2023-02-16T05:50:57;-1.70;99.90
1015;DHT22;8170;48.118;11.628;2023-02-16T05:51:59;-1.70;99.90
1015;DHT22;8170;48.118;11.628;2023-02-16T05:53:02;-1.70;99.90
1015;DHT22;8170;48.118;11.628;2023-02-16T05:54:05;-1.70;99.90
1015;DHT22;8170;48.118;11.628;2023-02-16T05:55:08;-1.70;99.90
1015;DHT22;8170;48.118;11.628;2023-02-16T05:56:12;-1.70;99.90
1015;DHT22;8170;48.118;11.628;2023-02-16T05:57:14;-1.70;99.90
1015;DHT22;8170;48.118;11.628;2023-02-16T05:58:18;-1.70;99.90
1015;DHT22;8170;48.118;11.628;2023-02-16T05:59:20;-1.60;99.90
1015;DHT22;8170;48.118;11.628;2023-02-16T06:00:24;-1.60;99.90
1015;DHT22;8170;48.118;11.628;2023-02-16T06:01:27;-1.60;99.90
1015;DHT22;8170;48.118;11.628;2023-02-16T06:02:30;-1.60;99.90
1015;DHT22;8170;48.118;11.628;2023-02-16T06:03:33;-1.60;99.90
1015;DHT22;8170;48.118;11.628;2023-02-16T06:04:38;-1.60;99.90
1015;DHT22;8170;48.118;11.628;2023-02-16T06:05:42;-1.60;99.90
1015;DHT22;8170;48.118;11.628;2023-02-16T06:06:44;-1.50;99.90
1015;DHT22;8170;48.118;11.628;2023-02-16T06:07:47;-1.60;99.90
1015;DHT22;8170;48.118;11.628;2023-02-16T06:08:49;-1.60;99.90
1015;DHT22;8170;48.118;11.628;2023-02-16T06:09:53;-1.70;99.90
1015;DHT22;8170;48.118;11.628;2023-02-16T06:10:55;-1.80;99.90
1015;DHT22;8170;48.118;11.628;2023-02-16T06:11:59;-1.80;99.90
1015;DHT22;8170;48.118;11.628;2023-02-16T06:13:02;-1.80;99.90
1015;DHT22;8170;48.118;11.628;2023-02-16T06:14:07;-1.80;99.90
1015;DHT22;8170;48.118;11.628;2023-02-16T06:15:10;-1.70;99.90
1015;DHT22;8170;48.118;11.628;2023-02-16T06:16:13;-1.70;99.90
1015;DHT22;8170;48.118;11.628;2023-02-16T06:17:16;-1.70;99.90
1015;DHT22;8170;48.118;11.628;2023-02-16T06:18:19;-1.80;99.90
1015;DHT22;8170;48.118;11.628;2023-02-16T06:19:22;-1.80;99.90
1015;DHT22;8170;48.118;11.628;2023-02-16T06:20:27;-1.80;99.90
1015;DHT22;8170;48.118;11.628;2023-02-16T06:21:29;-1.80;99.90
1015;DHT22;8170;48.118;11.628;2023-02-16T06:22:33;-1.80;99.90
1015;DHT22;8170;48.118;11.628;2023-02-16T06:23:35;-1.70;99.90
1015;DHT22;8170;48.118;11.628;2023-02-16T06:24:38;-1.70;99.90
1015;DHT22;8170;48.118;11.628;2023-02-16T06:25:42;-1.70;99.90
1015;DHT22;8170;48.118;11.628;2023-02-16T06:26:44;-1.70;99.90
1015;DHT22;8170;48.118;11.628;2023-02-16T06:27:48;-1.70;99.90
1015;DHT22;8170;48.118;11.628;2023-02-16T06:28:51;-1.70;99.90
1015;DHT22;8170;48.118;11.628;2023-02-16T06:29:54;-1.60;99.90
1015;DHT22;8170;48.118;11.628;2023-02-16T06:30:56;-1.60;99.90
1015;DHT22;8170;48.118;11.628;2023-02-16T06:31:59;-1.60;99.90
1015;DHT22;8170;48.118;11.628;2023-02-16T06:33:03;-1.50;99.90
1015;DHT22;8170;48.118;11.628;2023-02-16T06:34:05;-1.50;99.90
1015;DHT22;8170;48.118;11.628;2023-02-16T06:35:08;-1.50;99.90
1015;DHT22;8170;48.118;11.628;2023-02-16T06:36:12;-1.40;99.90
1015;DHT22;8170;48.118;11.628;2023-02-16T06:37:16;-1.40;99.90
1015;DHT22;8170;48.118;11.628;2023-02-16T06:38:19;-1.40;99.90
1015;DHT22;8170;48.118;11.628;2023-02-16T06:39:22;-1.30;99.90
1015;DHT22;8170;48.118;11.628;2023-02-16T06:40:24;-1.30;99.90
1015;DHT22;8170;48.118;11.628;2023-02-16T06:41:28;-1.20;99.90
1015;DHT22;8170;48.118;11.628;2023-02-16T06:42:38;-1.20;99.90
1015;DHT22;8170;48.118;11.628;2023-02-16T06:43:41;-1.20;99.90
1015;DHT22;8170;48.118;11.628;2023-02-16T06:44:43;-1.20;99.90
1015;DHT22;8170;48.118;11.628;2023-02-16T06:45:47;-1.20;99.90
1015;DHT22;8170;48.118;11.628;2023-02-16T06:46:49;-1.10;99.90
1015;DHT22;8170;48.118;11.628;2023-02-16T06:47:52;-1.10;99.90
1015;DHT22;8170;48.118;11.628;2023-02-16T06:48:54;-1.00;99.90
1015;DHT22;8170;48.118;11.628;2023-02-16T06:49:58;-1.00;99.90
1015;DHT22;8170;48.118;11.628;2023-02-16T06:51:00;-1.00;99.90
1015;DHT22;8170;48.118;11.628;2023-02-16T06:52:05;-0.90;99.90
1015;DHT22;8170;48.118;11.628;2023-02-16T06:53:07;-0.90;99.90
1015;DHT22;8170;48.118;11.628;2023-02-16T06:54:11;-0.80;99.90
1015;DHT22;8170;48.118;11.628;2023-02-16T06:55:13;-0.70;99.90
1015;DHT22;8170;48.118;11.628;2023-02-16T06:56:17;-0.60;99.90
1015;DHT22;8170;48.118;11.628;2023-02-16T06:57:19;-0.60;99.90
1015;DHT22;8170;48.118;11.628;2023-02-16T06:58:22;-0.50;99.90
1015;DHT22;8170;48.118;11.628;2023-02-16T06:59:24;-0.40;99.90
1015;DHT22;8170;48.118;11.628;2023-02-16T07:00:27;-0.10;99.90
1015;DHT22;8170;48.118;11.628;2023-02-16T07:01:30;0.20;99.90
1015;DHT22;8170;48.118;11.628;2023-02-16T07:02:33;0.50;99.90
1015;DHT22;8170;48.118;11.628;2023-02-16T07:03:36;0.70;99.90
1015;DHT22;8170;48.118;11.628;2023-02-16T07:04:40;1.00;99.90
1015;DHT22;8170;48.118;11.628;2023-02-16T07:05:43;1.30;99.90
1015;DHT22;8170;48.118;11.628;2023-02-16T07:06:46;1.70;99.90
1015;DHT22;8170;48.118;11.628;2023-02-16T07:07:50;2.00;99.90